Time;durP1;ratioP1;P1;durP2;ratioP2;P2;SDS_P1;SDS_P2;PMS_P1;PMS_P2;Temp;Humidity;BMP_temperature;BMP_pressure;BME280_temperature;BME280_humidity;BME280_pressure;Samples;Min_cycle;Max_cycle;Signal;HPM_P1;HPM_P2
2023/05/13 00:01:48;;;;;;;;;;;;;;;13.84;73.89;102001.66;5056355;28;1134;-76
2023/05/13 00:04:13;;;;;;;;;;;;;;;13.82;73.83;102010.44;5058946;28;1220;-74
2023/05/13 00:06:38;;;;;;;;;;;;;;;13.82;74.31;101999.19;5054383;28;1270;-75
2023/05/13 00:09:03;;;;;;;;;;;;;;;13.80;73.99;101996.66;5057420;28;1184;-74
2023/05/13 00:11:29;;;;;;;;;;;;;;;13.79;73.75;102004.59;5057018;28;1238;-74
2023/05/13 00:13:54;;;;;;;;;;;;;;;13.76;73.86;102004.81;5057676;28;1282;-74
2023/05/13 00:16:22;;;;;;;;;;;;;;;13.74;73.95;102002.34;5056991;28;1352;-74
2023/05/13 00:18:48;;;;;;;;;;;;;;;13.73;74.41;102005.91;5060156;28;1953;-74
2023/05/13 00:21:13;;;;;;;;;;;;;;;13.70;75.00;102000.91;5064176;28;1068;-75
2023/05/13 00:23:38;;;;;;;;;;;;;;;13.65;75.02;101997.84;5064439;28;1108;-74
2023/05/13 00:26:03;;;;;;;;;;;;;;;13.59;74.52;101998.31;5062871;28;1315;-75
2023/05/13 00:28:28;;;;;;;;;;;;;;;13.55;74.70;102002.09;5065280;28;1085;-74
2023/05/13 00:30:54;;;;;;;;;;;;;;;13.51;74.59;101993.66;5058821;28;1156;-74
2023/05/13 00:33:19;;;;;;;;;;;;;;;13.48;74.79;101990.47;5061414;28;1208;-74
2023/05/13 00:35:44;;;;;;;;;;;;;;;13.45;75.22;102001.13;5051256;28;1468;-74
2023/05/13 00:38:09;;;;;;;;;;;;;;;13.41;75.29;101997.06;5050022;28;1075;-74
2023/05/13 00:40:38;;;;;;;;;;;;;;;13.39;74.25;102001.56;5065236;28;1898;-74
2023/05/13 00:43:03;;;;;;;;;;;;;;;13.33;74.06;101996.81;5065486;28;1091;-74
2023/05/13 00:45:28;;;;;;;;;;;;;;;13.29;74.23;101997.03;5054644;28;1170;-74
2023/05/13 00:47:54;;;;;;;;;;;;;;;13.25;73.43;101995.63;5067473;28;1325;-74
2023/05/13 00:50:19;;;;;;;;;;;;;;;13.21;74.01;102001.16;5051932;28;1093;-74
2023/05/13 00:52:45;;;;;;;;;;;;;;;13.15;73.94;101999.81;5067889;28;1327;-73
2023/05/13 00:55:10;;;;;;;;;;;;;;;13.14;73.99;101998.16;5066924;28;1303;-74
2023/05/13 00:57:36;;;;;;;;;;;;;;;13.11;74.42;102008.78;5057475;28;1193;-75
2023/05/13 01:00:04;;;;;;;;;;;;;;;13.10;74.89;102003.69;5068645;28;1957;-74
2023/05/13 01:02:29;;;;;;;;;;;;;;;13.09;75.21;102005.47;5081059;28;1223;-74
2023/05/13 01:04:57;;;;;;;;;;;;;;;13.06;75.06;102003.09;5070085;28;1251;-74
2023/05/13 01:07:34;;;;;;;;;;;;;;;13.06;75.47;102003.09;5065674;28;1580;-74
2023/05/13 01:10:04;;;;;;;;;;;;;;;13.03;74.87;101995.50;5058011;28;1253;-74
2023/05/13 01:12:31;;;;;;;;;;;;;;;13.02;75.07;101993.84;5058617;28;1117;-75
2023/05/13 01:15:08;;;;;;;;;;;;;;;13.02;75.37;101999.06;5065322;28;1084;-74
2023/05/13 01:17:36;;;;;;;;;;;;;;;12.95;75.58;101992.63;5058162;28;1156;-73
2023/05/13 01:20:06;;;;;;;;;;;;;;;12.92;75.31;101992.84;5063053;28;1985;-74
2023/05/13 01:22:31;;;;;;;;;;;;;;;12.88;75.20;101999.22;5065684;28;1093;-74
2023/05/13 01:24:56;;;;;;;;;;;;;;;12.85;75.08;102002.06;5063004;28;1322;-76
2023/05/13 01:27:21;;;;;;;;;;;;;;;12.81;74.69;101995.41;5058876;28;1186;-74
2023/05/13 01:29:47;;;;;;;;;;;;;;;12.76;75.09;101993.97;5067958;28;1141;-75
2023/05/13 01:32:13;;;;;;;;;;;;;;;12.74;74.99;101990.66;5065883;28;1166;-74
2023/05/13 01:34:39;;;;;;;;;;;;;;;12.73;75.72;101993.34;5064421;28;1227;-74
2023/05/13 01:37:05;;;;;;;;;;;;;;;12.70;75.32;101994.41;5064043;28;1089;-74
2023/05/13 01:39:31;;;;;;;;;;;;;;;12.67;75.23;101994.63;5063942;28;1902;-76
2023/05/13 01:41:56;;;;;;;;;;;;;;;12.63;75.92;101993.19;5063174;28;1141;-74
2023/05/13 01:44:21;;;;;;;;;;;;;;;12.61;75.70;101995.06;5057819;28;1024;-75
2023/05/13 01:46:49;;;;;;;;;;;;;;;12.57;75.88;101998.84;5059153;28;1438;-74
2023/05/13 01:49:14;;;;;;;;;;;;;;;12.55;75.78;102000.69;5068319;28;1243;-74
2023/05/13 01:51:40;;;;;;;;;;;;;;;12.54;75.94;101993.84;5064557;28;1459;-75
2023/05/13 01:54:05;;;;;;;;;;;;;;;12.51;76.29;101995.84;5056527;28;1307;-74
2023/05/13 01:56:30;;;;;;;;;;;;;;;12.47;76.32;101995.22;5054490;28;1257;-77
2023/05/13 01:58:55;;;;;;;;;;;;;;;12.44;76.08;102003.22;5067146;28;1893;-74
2023/05/13 02:01:21;;;;;;;;;;;;;;;12.38;76.10;101993.25;5062285;28;1144;-74
2023/05/13 02:03:46;;;;;;;;;;;;;;;12.34;76.41;101991.81;5078090;28;1216;-74
2023/05/13 02:06:11;;;;;;;;;;;;;;;12.31;76.20;101998.06;5068779;28;1100;-73
2023/05/13 02:08:36;;;;;;;;;;;;;;;12.28;76.59;101997.47;5062978;28;1128;-74
2023/05/13 02:11:02;;;;;;;;;;;;;;;12.26;76.21;101994.13;5067125;28;1256;-74
2023/05/13 02:13:27;;;;;;;;;;;;;;;12.22;76.04;101988.31;5064781;28;1372;-74
2023/05/13 02:15:53;;;;;;;;;;;;;;;12.20;76.42;101990.19;5069118;28;1068;-76
2023/05/13 02:18:18;;;;;;;;;;;;;;;12.15;75.88;101994.84;5062031;28;1032;-74
2023/05/13 02:20:44;;;;;;;;;;;;;;;12.11;76.28;101994.25;5057340;28;1926;-74
2023/05/13 02:23:09;;;;;;;;;;;;;;;12.11;76.21;101996.03;5067118;28;1103;-74
2023/05/13 02:25:34;;;;;;;;;;;;;;;12.09;76.38;101992.69;5051204;28;1109;-73
2023/05/13 02:27:59;;;;;;;;;;;;;;;12.07;76.73;102000.59;5064708;28;1329;-73
2023/05/13 02:30:26;;;;;;;;;;;;;;;12.06;76.46;101991.16;5069302;28;1105;-74
2023/05/13 02:32:55;;;;;;;;;;;;;;;12.02;77.00;101992.28;5066420;28;1114;-74
2023/05/13 02:35:21;;;;;;;;;;;;;;;12.00;76.94;101993.34;5053569;28;1123;-74
2023/05/13 02:37:46;;;;;;;;;;;;;;;11.98;77.16;101995.19;5051251;28;1207;-73
2023/05/13 02:40:12;;;;;;;;;;;;;;;11.94;77.07;101986.78;5063547;28;1964;-73
2023/05/13 02:42:37;;;;;;;;;;;;;;;11.89;77.42;101983.69;5050190;28;1441;-74
2023/05/13 02:45:03;;;;;;;;;;;;;;;11.87;77.57;101990.72;5063943;28;1343;-73
2023/05/13 02:47:28;;;;;;;;;;;;;;;11.85;77.61;101992.63;5068170;28;1160;-73
2023/05/13 02:49:56;;;;;;;;;;;;;;;11.84;77.17;101990.94;5068865;28;1178;-75
2023/05/13 02:52:22;;;;;;;;;;;;;;;11.82;77.87;101990.25;5067841;28;1106;-75
2023/05/13 02:54:47;;;;;;;;;;;;;;;11.78;77.33;101979.19;5063539;28;1175;-73
2023/05/13 02:57:12;;;;;;;;;;;;;;;11.76;77.54;101986.25;5059671;28;1381;-75
2023/05/13 02:59:37;;;;;;;;;;;;;;;11.73;77.73;101988.22;5065067;28;1894;-74
2023/05/13 03:02:03;;;;;;;;;;;;;;;11.70;78.17;101984.06;5067492;28;1118;-74
2023/05/13 03:04:28;;;;;;;;;;;;;;;11.69;77.87;101985.00;5066233;28;1238;-75
2023/05/13 03:06:53;;;;;;;;;;;;;;;11.67;78.44;101992.91;5056378;28;1162;-74
2023/05/13 03:09:18;;;;;;;;;;;;;;;11.63;78.01;101991.44;5054806;28;1115;-74
2023/05/13 03:11:44;;;;;;;;;;;;;;;11.61;78.95;101982.09;5054619;28;1401;-74
2023/05/13 03:14:09;;;;;;;;;;;;;;;11.60;78.13;101990.81;5066053;28;1084;-74
2023/05/13 03:16:34;;;;;;;;;;;;;;;11.59;78.74;101990.00;5065514;28;1043;-74
2023/05/13 03:18:59;;;;;;;;;;;;;;;11.55;78.03;101988.53;5060390;28;1902;-74
2023/05/13 03:21:25;;;;;;;;;;;;;;;11.50;78.80;101982.81;5058879;28;1246;-73
2023/05/13 03:23:50;;;;;;;;;;;;;;;11.47;78.11;101980.44;5063243;28;1098;-74
2023/05/13 03:26:15;;;;;;;;;;;;;;;11.43;78.90;101989.34;5067293;28;1279;-74
2023/05/13 03:28:40;;;;;;;;;;;;;;;11.39;79.58;101993.06;5056711;28;1285;-73
2023/05/13 03:31:06;;;;;;;;;;;;;;;11.39;78.93;101985.28;5065829;28;1261;-73
2023/05/13 03:33:31;;;;;;;;;;;;;;;11.36;79.15;101993.28;5054662;28;1166;-73
2023/05/13 03:35:56;;;;;;;;;;;;;;;11.35;79.37;101997.63;5065657;28;1162;-75
2023/05/13 03:38:21;;;;;;;;;;;;;;;11.33;78.71;101993.47;5067651;28;1056;-74
2023/05/13 03:40:46;;;;;;;;;;;;;;;11.35;79.75;101996.81;5067468;28;1894;-74
2023/05/13 03:43:12;;;;;;;;;;;;;;;11.35;79.08;101991.59;5065956;28;1290;-74
2023/05/13 03:45:37;;;;;;;;;;;;;;;11.34;80.15;101993.38;5062655;28;1292;-74
2023/05/13 03:48:02;;;;;;;;;;;;;;;11.32;78.87;101997.03;5067818;28;1155;-73
2023/05/13 03:50:27;;;;;;;;;;;;;;;11.30;79.27;102004.91;5066922;28;1037;-74
2023/05/13 03:52:53;;;;;;;;;;;;;;;11.28;79.73;101996.38;5068637;28;1180;-75
2023/05/13 03:55:18;;;;;;;;;;;;;;;11.23;79.20;102008.81;5062419;28;1328;-74
2023/05/13 03:57:46;;;;;;;;;;;;;;;11.18;80.04;102005.69;5064134;28;1028;-74
2023/05/13 04:00:11;;;;;;;;;;;;;;;11.16;79.98;102008.41;5053975;28;1968;-73
2023/05/13 04:02:36;;;;;;;;;;;;;;;11.15;80.09;102001.56;5062333;28;942;-73
2023/05/13 04:05:04;;;;;;;;;;;;;;;11.10;80.29;102008.81;5066220;28;1304;-74
2023/05/13 04:07:29;;;;;;;;;;;;;;;11.08;80.59;102005.50;5059374;28;1040;-74
2023/05/13 04:09:55;;;;;;;;;;;;;;;11.08;80.13;102010.69;5060864;28;1192;-74
2023/05/13 04:12:20;;;;;;;;;;;;;;;11.08;80.55;102010.69;5059081;28;1173;-75
2023/05/13 04:14:45;;;;;;;;;;;;;;;11.07;80.54;102003.81;5065676;28;1273;-75
2023/05/13 04:17:10;;;;;;;;;;;;;;;11.05;80.37;102003.06;5056825;28;1194;-74
2023/05/13 04:19:36;;;;;;;;;;;;;;;11.03;81.04;102004.94;5065075;28;1918;-74
2023/05/13 04:22:01;;;;;;;;;;;;;;;11.00;80.38;102010.31;5057747;28;1147;-74
2023/05/13 04:24:26;;;;;;;;;;;;;;;10.99;80.95;102021.63;5058575;28;1137;-74
2023/05/13 04:26:51;;;;;;;;;;;;;;;10.98;80.73;102024.34;5066120;28;1343;-74
2023/05/13 04:29:16;;;;;;;;;;;;;;;10.96;81.68;102021.84;5057521;28;1182;-74
2023/05/13 04:31:42;;;;;;;;;;;;;;;10.95;81.39;102035.75;5056295;28;1293;-74
2023/05/13 04:34:07;;;;;;;;;;;;;;;10.94;82.10;102023.69;5062141;28;1303;-74
2023/05/13 04:36:33;;;;;;;;;;;;;;;10.92;81.66;102029.94;5060798;28;1092;-74
2023/05/13 04:38:58;;;;;;;;;;;;;;;10.90;82.24;102023.09;5062250;28;1114;-75
2023/05/13 04:41:23;;;;;;;;;;;;;;;10.90;82.11;102027.44;5055532;28;1894;-74
2023/05/13 04:43:48;;;;;;;;;;;;;;;10.88;82.07;102024.91;5065709;28;1019;-74
2023/05/13 04:46:13;;;;;;;;;;;;;;;10.90;81.90;102022.25;5066040;28;1175;-74
2023/05/13 04:48:39;;;;;;;;;;;;;;;10.92;81.65;102030.75;5067207;28;1209;-76
2023/05/13 04:51:04;;;;;;;;;;;;;;;10.94;82.31;102034.06;5065293;28;1253;-74
2023/05/13 04:53:29;;;;;;;;;;;;;;;10.95;82.82;102030.53;5065095;28;1144;-74
2023/05/13 04:55:59;;;;;;;;;;;;;;;10.94;82.99;102028.06;5064083;28;1076;-74
2023/05/13 04:58:24;;;;;;;;;;;;;;;10.93;83.62;102032.41;5059613;28;1058;-74
2023/05/13 05:00:50;;;;;;;;;;;;;;;10.93;83.04;102037.63;5062309;28;1902;-74
2023/05/13 05:03:15;;;;;;;;;;;;;;;10.95;82.89;102035.75;5063950;28;1326;-75
2023/05/13 05:05:40;;;;;;;;;;;;;;;10.98;83.37;102045.94;5061281;28;976;-74
2023/05/13 05:08:05;;;;;;;;;;;;;;;11.00;83.01;102038.88;5055803;28;1158;-74
2023/05/13 05:10:30;;;;;;;;;;;;;;;11.01;83.82;102035.38;5062468;28;1281;-73
2023/05/13 05:12:56;;;;;;;;;;;;;;;11.01;84.46;102026.72;5067223;28;1170;-74
2023/05/13 05:15:21;;;;;;;;;;;;;;;11.04;85.43;102035.16;5067311;28;1109;-75
2023/05/13 05:17:46;;;;;;;;;;;;;;;11.05;84.28;102036.81;5060865;28;1255;-74
2023/05/13 05:20:12;;;;;;;;;;;;;;;11.07;84.37;102050.56;5057885;28;1973;-74
2023/05/13 05:22:38;;;;;;;;;;;;;;;11.08;83.68;102046.19;5058842;28;974;-73
2023/05/13 05:25:03;;;;;;;;;;;;;;;11.11;84.36;102049.41;5066103;28;1172;-74
2023/05/13 05:27:28;;;;;;;;;;;;;;;11.14;84.91;102046.63;5055878;28;1094;-74
2023/05/13 05:29:54;;;;;;;;;;;;;;;11.17;84.75;102051.59;5063905;28;1180;-75
2023/05/13 05:32:19;;;;;;;;;;;;;;;11.20;85.18;102050.59;5067632;28;1348;-74
2023/05/13 05:34:44;;;;;;;;;;;;;;;11.21;85.99;102046.22;5062339;28;1161;-74
2023/05/13 05:37:09;;;;;;;;;;;;;;;11.24;85.04;102054.66;5069086;28;1091;-74
2023/05/13 05:39:35;;;;;;;;;;;;;;;11.28;85.37;102050.09;5061300;28;1909;-76
2023/05/13 05:42:00;;;;;;;;;;;;;;;11.31;85.85;102053.34;5063069;28;1167;-74
2023/05/13 05:44:25;;;;;;;;;;;;;;;11.36;85.64;102050.44;5062860;28;1494;-75
2023/05/13 05:46:51;;;;;;;;;;;;;;;11.41;85.92;102058.75;5062327;28;1081;-73
2023/05/13 05:49:16;;;;;;;;;;;;;;;11.46;86.22;102056.69;5058371;28;1088;-74
2023/05/13 05:51:42;;;;;;;;;;;;;;;11.51;86.31;102056.38;5062805;28;1187;-74
2023/05/13 05:54:07;;;;;;;;;;;;;;;11.53;85.85;102052.75;5084256;28;1209;-75
2023/05/13 05:56:32;;;;;;;;;;;;;;;11.58;85.84;102055.88;5063314;28;1053;-74
2023/05/13 05:58:57;;;;;;;;;;;;;;;11.62;85.99;102057.34;5067187;28;1104;-74
2023/05/13 06:01:22;;;;;;;;;;;;;;;11.66;85.63;102047.59;5065209;28;1882;-74
2023/05/13 06:03:48;;;;;;;;;;;;;;;11.70;85.69;102059.44;5065107;28;1211;-74
2023/05/13 06:06:13;;;;;;;;;;;;;;;11.72;85.52;102062.75;5064051;28;1370;-74
2023/05/13 06:08:38;;;;;;;;;;;;;;;11.75;86.39;102066.91;5058124;28;1194;-76
2023/05/13 06:11:03;;;;;;;;;;;;;;;11.78;85.35;102064.13;5067382;28;1643;-74
2023/05/13 06:13:29;;;;;;;;;;;;;;;11.81;85.01;102071.69;5058655;28;1227;-76
2023/05/13 06:15:54;;;;;;;;;;;;;;;11.80;84.35;102064.84;5057746;28;1432;-74
2023/05/13 06:18:19;;;;;;;;;;;;;;;11.80;84.50;102064.84;5063245;28;1238;-75
2023/05/13 06:20:45;;;;;;;;;;;;;;;11.82;85.65;102073.41;5059840;28;1898;-74
2023/05/13 06:23:10;;;;;;;;;;;;;;;11.86;85.40;102069.66;5067559;28;1496;-75
2023/05/13 06:25:35;;;;;;;;;;;;;;;11.89;85.75;102059.91;5068579;28;1172;-74
2023/05/13 06:28:00;;;;;;;;;;;;;;;11.95;85.56;102063.84;5064299;28;1099;-74
2023/05/13 06:30:25;;;;;;;;;;;;;;;12.02;85.95;102066.88;5054390;28;1313;-76
2023/05/13 06:32:51;;;;;;;;;;;;;;;12.05;85.00;102074.47;5064852;28;1116;-75
2023/05/13 06:35:16;;;;;;;;;;;;;;;12.00;84.76;102072.19;5063084;28;1206;-76
2023/05/13 06:37:41;;;;;;;;;;;;;;;12.02;85.41;102085.91;5075965;28;1373;-75
2023/05/13 06:40:07;;;;;;;;;;;;;;;11.99;85.29;102075.72;5065475;28;1874;-75
2023/05/13 06:42:32;;;;;;;;;;;;;;;12.01;85.40;102086.84;5064472;28;1025;-75
2023/05/13 06:44:57;;;;;;;;;;;;;;;12.03;85.31;102084.94;5061590;28;1267;-75
2023/05/13 06:47:22;;;;;;;;;;;;;;;12.09;85.53;102092.34;5056416;28;1257;-75
2023/05/13 06:49:47;;;;;;;;;;;;;;;12.17;85.41;102087.47;5057320;28;1287;-75
2023/05/13 06:52:13;;;;;;;;;;;;;;;12.22;85.38;102088.00;5066121;28;1388;-75
2023/05/13 06:54:39;;;;;;;;;;;;;;;12.20;85.55;102079.44;5068329;28;1355;-75
2023/05/13 06:57:04;;;;;;;;;;;;;;;12.26;85.59;102093.78;5065131;28;1206;-76
2023/05/13 06:59:30;;;;;;;;;;;;;;;12.28;85.47;102084.13;5067956;28;1933;-75
2023/05/13 07:01:55;;;;;;;;;;;;;;;12.37;86.00;102095.66;5061583;28;1162;-77
2023/05/13 07:04:20;;;;;;;;;;;;;;;12.48;85.43;102082.75;5066497;28;1166;-75
2023/05/13 07:06:46;;;;;;;;;;;;;;;12.58;86.29;102083.78;5068397;28;1700;-75
2023/05/13 07:09:11;;;;;;;;;;;;;;;12.70;86.44;102088.13;5059367;28;1198;-75
2023/05/13 07:11:37;;;;;;;;;;;;;;;12.77;85.44;102076.31;5064651;28;1155;-75
2023/05/13 07:14:02;;;;;;;;;;;;;;;12.86;86.40;102087.03;5064212;28;5092;-76
2023/05/13 07:16:27;;;;;;;;;;;;;;;12.90;86.12;102075.44;5065422;28;1107;-75
2023/05/13 07:18:55;;;;;;;;;;;;;;;12.95;85.87;102082.00;5060697;28;1287;-77
2023/05/13 07:21:20;;;;;;;;;;;;;;;13.03;86.06;102078.84;5057750;28;1951;-77
2023/05/13 07:23:46;;;;;;;;;;;;;;;13.12;85.83;102078.16;5061392;28;1158;-75
2023/05/13 07:26:11;;;;;;;;;;;;;;;13.22;85.48;102083.59;5080135;28;1204;-78
2023/05/13 07:28:36;;;;;;;;;;;;;;;13.29;85.50;102075.19;5050884;28;1234;-75
2023/05/13 07:31:03;;;;;;;;;;;;;;;13.40;85.10;102084.84;5052643;28;1028;-75
2023/05/13 07:33:28;;;;;;;;;;;;;;;13.48;85.04;102073.88;5059477;28;1295;-76
2023/05/13 07:35:54;;;;;;;;;;;;;;;13.60;84.92;102077.34;5057764;28;1524;-76
2023/05/13 07:38:19;;;;;;;;;;;;;;;13.73;84.86;102073.69;5065143;28;1056;-77
2023/05/13 07:40:44;;;;;;;;;;;;;;;13.80;84.02;102079.28;5060896;28;2421;-75
2023/05/13 07:43:10;;;;;;;;;;;;;;;13.89;82.27;102082.97;5082068;28;1297;-76
2023/05/13 07:45:37;;;;;;;;;;;;;;;13.98;84.20;102083.09;5066710;28;1211;-76
2023/05/13 07:48:03;;;;;;;;;;;;;;;14.09;83.44;102079.69;5067417;28;1078;-75
2023/05/13 07:50:28;;;;;;;;;;;;;;;14.18;82.47;102084.19;5063880;28;1098;-77
2023/05/13 07:52:53;;;;;;;;;;;;;;;14.26;82.00;102087.03;5066765;28;993;-75
2023/05/13 07:55:19;;;;;;;;;;;;;;;14.34;82.21;102079.47;5062592;28;1230;-76
2023/05/13 07:57:44;;;;;;;;;;;;;;;14.44;82.19;102076.13;5066547;28;2229;-76
2023/05/13 08:00:10;;;;;;;;;;;;;;;14.51;81.81;102079.97;5049471;28;1953;-76
2023/05/13 08:02:38;;;;;;;;;;;;;;;14.59;80.71;102080.19;5054964;28;1312;-76
2023/05/13 08:05:04;;;;;;;;;;;;;;;14.70;81.82;102072.34;5051738;28;1190;-75
2023/05/13 08:07:29;;;;;;;;;;;;;;;14.80;80.95;102080.28;5065636;28;1125;-76
2023/05/13 08:09:54;;;;;;;;;;;;;;;14.84;81.15;102082.50;5058801;28;1299;-76
2023/05/13 08:12:20;;;;;;;;;;;;;;;14.90;81.62;102085.59;5058377;28;1076;-76
2023/05/13 08:14:45;;;;;;;;;;;;;;;15.02;81.87;102084.59;5056355;28;938;-75
2023/05/13 08:17:10;;;;;;;;;;;;;;;15.14;81.75;102083.63;5054063;28;1204;-76
2023/05/13 08:19:36;;;;;;;;;;;;;;;15.28;81.66;102080.72;5062350;28;1910;-76
2023/05/13 08:22:01;;;;;;;;;;;;;;;15.36;78.87;102080.06;5063512;28;1081;-76
2023/05/13 08:24:26;;;;;;;;;;;;;;;15.45;80.06;102086.34;5059256;28;1243;-76
2023/05/13 08:26:52;;;;;;;;;;;;;;;15.56;79.02;102075.84;5063051;28;1309;-76
2023/05/13 08:29:17;;;;;;;;;;;;;;;15.65;77.07;102080.31;5051823;28;1087;-76
2023/05/13 08:31:42;;;;;;;;;;;;;;;15.70;75.08;102086.00;5064108;28;1010;-76
2023/05/13 08:34:07;;;;;;;;;;;;;;;15.76;75.19;102080.25;5051575;28;1123;-76
2023/05/13 08:36:32;;;;;;;;;;;;;;;15.85;74.59;102078.66;5054772;28;1167;-76
2023/05/13 08:38:58;;;;;;;;;;;;;;;15.91;74.79;102073.75;5053354;28;1199;-76
2023/05/13 08:41:23;;;;;;;;;;;;;;;15.99;75.77;102077.50;5056264;28;1957;-76
2023/05/13 08:43:50;;;;;;;;;;;;;;;16.10;77.04;102082.66;5060599;28;1155;-75
2023/05/13 08:46:17;;;;;;;;;;;;;;;16.24;73.71;102079.69;5064888;28;1259;-76
2023/05/13 08:48:42;;;;;;;;;;;;;;;16.35;75.51;102077.00;5061608;28;1521;-76
2023/05/13 08:51:08;;;;;;;;;;;;;;;16.45;73.31;102084.84;5064337;28;1493;-76
2023/05/13 08:53:34;;;;;;;;;;;;;;;16.56;75.68;102079.53;5062206;28;1608;-76
2023/05/13 08:55:59;;;;;;;;;;;;;;;16.67;75.17;102087.28;5061842;28;1118;-76
2023/05/13 08:58:25;;;;;;;;;;;;;;;16.76;74.12;102085.69;5060525;28;1439;-76
2023/05/13 09:00:52;;;;;;;;;;;;;;;16.87;73.89;102088.19;5058338;28;1886;-76
2023/05/13 09:03:18;;;;;;;;;;;;;;;16.96;72.05;102079.50;5064869;28;2483;-77
2023/05/13 09:05:43;;;;;;;;;;;;;;;17.04;72.26;102083.25;5064752;28;983;-76
2023/05/13 09:08:09;;;;;;;;;;;;;;;17.12;73.24;102080.75;5063092;28;1266;-76
2023/05/13 09:10:35;;;;;;;;;;;;;;;17.24;72.35;102079.66;5066366;28;1239;-76
2023/05/13 09:13:03;;;;;;;;;;;;;;;17.33;74.13;102076.22;5065114;28;1535;-76
2023/05/13 09:15:29;;;;;;;;;;;;;;;17.43;71.57;102079.66;5059084;28;1161;-76
2023/05/13 09:17:54;;;;;;;;;;;;;;;17.47;70.22;102081.03;5053757;28;1592;-76
2023/05/13 09:20:20;;;;;;;;;;;;;;;17.51;71.58;102077.16;5056056;28;1957;-76
2023/05/13 09:22:50;;;;;;;;;;;;;;;17.64;72.00;102079.50;5058720;28;1404;-76
2023/05/13 09:25:16;;;;;;;;;;;;;;;17.76;71.56;102077.56;5059930;28;1471;-76
2023/05/13 09:27:48;;;;;;;;;;;;;;;17.84;70.78;102077.69;5078980;28;1317;-76
2023/05/13 09:30:13;;;;;;;;;;;;;;;17.92;70.74;102079.59;5057022;28;1042;-76
2023/05/13 09:32:39;;;;;;;;;;;;;;;18.04;71.46;102074.03;5063263;28;1147;-75
2023/05/13 09:35:15;;;;;;;;;;;;;;;18.16;70.81;102079.09;5060642;28;1130;-76
2023/05/13 09:37:41;;;;;;;;;;;;;;;18.25;70.74;102070.38;5060519;28;1180;-75
2023/05/13 09:40:09;;;;;;;;;;;;;;;18.35;71.21;102070.31;5054617;28;1901;-76
2023/05/13 09:42:39;;;;;;;;;;;;;;;18.49;70.76;102057.53;5060931;28;1367;-77
2023/05/13 09:45:05;;;;;;;;;;;;;;;18.59;70.35;102062.72;5061825;28;1287;-76
2023/05/13 09:47:30;;;;;;;;;;;;;;;18.71;69.76;102066.00;5063301;28;1105;-76
2023/05/13 09:49:56;;;;;;;;;;;;;;;18.80;69.80;102065.94;5064674;28;1364;-76
2023/05/13 09:52:21;;;;;;;;;;;;;;;18.88;68.68;102056.50;5066867;28;1439;-75
2023/05/13 09:54:47;;;;;;;;;;;;;;;18.95;67.28;102058.38;5062709;28;1484;-76
2023/05/13 09:57:13;;;;;;;;;;;;;;;19.03;68.27;102058.44;5054399;28;1182;-78
2023/05/13 09:59:38;;;;;;;;;;;;;;;19.08;66.72;102058.81;5060610;28;1996;-76
2023/05/13 10:02:05;;;;;;;;;;;;;;;19.21;67.87;102052.34;5051807;28;1467;-76
2023/05/13 10:04:30;;;;;;;;;;;;;;;19.28;66.69;102058.66;5062855;28;1352;-76
2023/05/13 10:06:57;;;;;;;;;;;;;;;19.35;67.02;102054.44;5060612;28;1472;-77
2023/05/13 10:09:23;;;;;;;;;;;;;;;19.49;65.57;102051.25;5067155;28;1266;-76
2023/05/13 10:11:48;;;;;;;;;;;;;;;19.60;65.41;102043.13;5067429;28;1380;-78
2023/05/13 10:14:14;;;;;;;;;;;;;;;19.69;62.90;102040.56;5063051;28;1300;-76
2023/05/13 10:16:40;;;;;;;;;;;;;;;19.75;65.43;102039.94;5064771;28;1052;-77
2023/05/13 10:19:05;;;;;;;;;;;;;;;19.82;64.28;102036.50;5068058;28;1485;-76
2023/05/13 10:21:31;;;;;;;;;;;;;;;19.88;59.48;102040.34;5063858;28;1902;-76
2023/05/13 10:23:57;;;;;;;;;;;;;;;19.93;59.83;102034.59;5068402;28;1256;-78
2023/05/13 10:26:22;;;;;;;;;;;;;;;20.01;60.54;102037.25;5074854;28;1298;-76
2023/05/13 10:28:48;;;;;;;;;;;;;;;20.15;60.90;102032.25;5066678;28;1067;-76
2023/05/13 10:31:13;;;;;;;;;;;;;;;20.23;53.63;102033.25;5062273;28;1235;-76
2023/05/13 10:33:39;;;;;;;;;;;;;;;20.26;55.24;102027.66;5078818;28;1202;-76
2023/05/13 10:36:24;;;;;;;;;;;;;;;20.31;55.60;102031.47;5060505;28;1155;-75
2023/05/13 10:38:56;;;;;;;;;;;;;;;20.38;54.38;102023.75;5054653;28;1050;-74
2023/05/13 10:41:48;;;;;;;;;;;;;;;20.53;58.89;102026.59;5083324;28;1921;-74
2023/05/13 10:44:13;;;;;;;;;;;;;;;20.63;55.43;102025.47;5067790;28;1219;-75
2023/05/13 10:46:41;;;;;;;;;;;;;;;20.71;51.59;102026.50;5066634;28;1323;-74
2023/05/13 10:49:12;;;;;;;;;;;;;;;20.84;49.91;102016.28;5063277;28;1187;-74
2023/05/13 10:51:43;;;;;;;;;;;;;;;20.89;49.58;102019.28;5068821;28;1247;-75
2023/05/13 10:54:16;;;;;;;;;;;;;;;20.92;46.94;102024.19;5056737;28;1337;-76
2023/05/13 10:56:42;;;;;;;;;;;;;;;20.79;45.07;102018.59;5055716;28;1400;-74
2023/05/13 10:59:07;;;;;;;;;;;;;;;20.78;48.26;102016.94;5065915;28;1080;-75
2023/05/13 11:01:33;;;;;;;;;;;;;;;20.89;49.81;102006.09;5081625;28;1947;-75
2023/05/13 11:04:00;;;;;;;;;;;;;;;21.02;49.89;102019.59;5061268;28;1107;-75
2023/05/13 11:06:28;;;;;;;;;;;;;;;21.14;49.73;102013.00;5062412;28;1273;-75
2023/05/13 11:08:53;;;;;;;;;;;;;;;21.24;47.25;102019.94;5063661;28;1156;-76
2023/05/13 11:11:21;;;;;;;;;;;;;;;21.28;48.90;102014.16;5067963;28;1139;-75
2023/05/13 11:13:50;;;;;;;;;;;;;;;21.33;48.76;102011.03;5058404;28;1101;-74
2023/05/13 11:16:16;;;;;;;;;;;;;;;21.33;45.27;102016.31;5067191;28;1044;-74
2023/05/13 11:18:42;;;;;;;;;;;;;;;21.34;46.09;102017.97;5065099;28;1350;-76
2023/05/13 11:21:07;;;;;;;;;;;;;;;21.35;46.48;102014.34;5067367;28;1959;-74
2023/05/13 11:23:35;;;;;;;;;;;;;;;21.30;45.30;102006.09;5063590;28;1037;-74
2023/05/13 11:26:15;;;;;;;;;;;;;;;21.38;45.87;102011.34;5065503;28;1130;-75
2023/05/13 11:28:56;;;;;;;;;;;;;;;21.40;44.74;102010.22;5059845;28;1053;-75
2023/05/13 11:31:22;;;;;;;;;;;;;;;21.46;46.53;102016.63;5061903;28;1239;-74
2023/05/13 11:34:06;;;;;;;;;;;;;;;21.54;43.04;102006.06;5059086;28;1268;-74
2023/05/13 11:36:31;;;;;;;;;;;;;;;21.48;41.71;102014.66;5064326;28;1401;-74
2023/05/13 11:39:13;;;;;;;;;;;;;;;21.46;43.70;102016.63;5063444;28;1286;-74
2023/05/13 11:41:45;;;;;;;;;;;;;;;21.50;39.51;102006.56;5058816;28;1926;-74
2023/05/13 11:44:12;;;;;;;;;;;;;;;21.51;40.04;102002.94;5059784;28;1471;-73
2023/05/13 11:46:37;;;;;;;;;;;;;;;21.56;43.49;102006.69;5057710;28;1184;-74
2023/05/13 11:49:02;;;;;;;;;;;;;;;21.59;41.52;102001.09;5062905;28;1188;-73
2023/05/13 11:51:28;;;;;;;;;;;;;;;21.61;42.39;101993.81;5067133;28;1247;-76
2023/05/13 11:54:00;;;;;;;;;;;;;;;21.66;42.57;101996.78;5080784;28;1238;-75
2023/05/13 11:56:27;;;;;;;;;;;;;;;21.73;43.21;102003.03;5080714;28;1512;-74
2023/05/13 11:58:52;;;;;;;;;;;;;;;21.70;42.25;101992.81;5066471;28;1212;-74
2023/05/13 12:01:17;;;;;;;;;;;;;;;21.79;41.50;102000.69;5052862;28;1898;-74
2023/05/13 12:03:43;;;;;;;;;;;;;;;21.80;42.67;101997.91;5061939;28;1521;-74
2023/05/13 12:06:08;;;;;;;;;;;;;;;21.87;42.08;102000.69;5064301;28;1228;-74
2023/05/13 12:08:33;;;;;;;;;;;;;;;21.84;42.05;101988.63;5065489;28;1170;-74
2023/05/13 12:10:59;;;;;;;;;;;;;;;21.93;42.66;101986.78;5064564;28;1418;-76
2023/05/13 12:13:24;;;;;;;;;;;;;;;22.00;42.45;101999.13;5057114;28;1270;-75
2023/05/13 12:15:49;;;;;;;;;;;;;;;21.96;39.24;101997.00;5063172;28;1215;-74
2023/05/13 12:18:15;;;;;;;;;;;;;;;21.96;40.27;102004.91;5065267;28;1211;-74
2023/05/13 12:20:40;;;;;;;;;;;;;;;21.91;40.41;101988.78;5065682;28;1910;-74
2023/05/13 12:23:05;;;;;;;;;;;;;;;21.96;41.74;101997.84;5060432;28;1278;-74
2023/05/13 12:25:33;;;;;;;;;;;;;;;22.05;42.07;101995.16;5059071;28;1295;-74
2023/05/13 12:27:58;;;;;;;;;;;;;;;22.11;42.09;101990.03;5066584;28;1263;-76
2023/05/13 12:30:24;;;;;;;;;;;;;;;22.12;42.20;101991.69;5056250;28;1155;-74
2023/05/13 12:32:49;;;;;;;;;;;;;;;22.12;41.82;101986.38;5075565;28;1370;-75
2023/05/13 12:35:14;;;;;;;;;;;;;;;22.19;42.22;101987.38;5054095;28;1262;-74
2023/05/13 12:37:40;;;;;;;;;;;;;;;22.21;39.16;101984.53;5079131;28;1555;-75
2023/05/13 12:40:11;;;;;;;;;;;;;;;22.21;40.93;101989.84;5067556;28;1961;-74
2023/05/13 12:42:36;;;;;;;;;;;;;;;22.25;41.25;101991.97;5067571;28;1291;-76